createdAt,value
2019-03-16T00:00:04.580Z,69.8
2019-03-16T00:15:04.932Z,69.9
2019-03-16T00:30:04.897Z,69.2
2019-03-16T00:45:04.234Z,68.7
2019-03-16T01:00:05.006Z,68.2
2019-03-16T01:15:04.799Z,68.2
2019-03-16T01:30:04.334Z,68
2019-03-16T01:45:04.713Z,68
2019-03-16T02:00:04.513Z,68.1
2019-03-16T02:15:04.450Z,68.1
2019-03-16T02:30:04.420Z,68.1
2019-03-16T02:45:04.152Z,68.1
2019-03-16T03:00:04.375Z,67.9
2019-03-16T03:15:05.064Z,67.4
2019-03-16T03:30:05.022Z,67
2019-03-16T03:45:04.901Z,67.5
2019-03-16T04:00:04.679Z,67.6
2019-03-16T04:15:04.478Z,67.1
2019-03-16T04:30:04.494Z,66.8
2019-03-16T04:45:04.232Z,66.7
2019-03-16T05:00:05.054Z,66.1
2019-03-16T05:15:04.920Z,66.8
2019-03-16T05:30:05.036Z,66.9
2019-03-16T05:45:04.731Z,66.4
2019-03-16T06:00:04.496Z,67
2019-03-16T06:15:04.189Z,66.7
2019-03-16T06:30:04.180Z,66.9
2019-03-16T06:45:04.962Z,66.3
2019-03-16T07:00:04.710Z,66.5
2019-03-16T07:15:04.459Z,67.3
2019-03-16T07:30:04.479Z,67.1
2019-03-16T07:45:08.991Z,67.1
2019-03-16T08:00:04.171Z,66.4
2019-03-16T08:15:04.544Z,68.9
2019-03-16T08:30:04.706Z,69.1
2019-03-16T08:45:04.983Z,71.1
2019-03-16T09:00:04.759Z,74.4
2019-03-16T09:15:04.149Z,82.8
2019-03-16T09:30:04.212Z,64.9
2019-03-16T09:45:04.984Z,67.2
2019-03-16T10:00:04.757Z,61.6
2019-03-16T10:15:05.085Z,52.7
2019-03-16T10:30:04.541Z,53.2
2019-03-16T10:45:04.880Z,55.1
2019-03-16T11:00:04.650Z,54.9
2019-03-16T11:15:04.473Z,55.4
2019-03-16T11:30:05.080Z,56.1
2019-03-16T11:45:04.321Z,55
2019-03-16T12:00:04.632Z,55.5
2019-03-16T12:15:04.896Z,56.1
2019-03-16T12:30:04.888Z,56.1
2019-03-16T12:45:04.682Z,56.1
2019-03-16T13:00:04.452Z,56
2019-03-16T13:15:04.796Z,55.7
2019-03-16T13:30:04.684Z,55.7
2019-03-16T13:45:04.922Z,55
2019-03-16T14:00:12.453Z,55.2
2019-03-16T14:15:04.254Z,54.7
2019-03-16T14:30:04.210Z,54.9
2019-03-16T14:45:04.550Z,54.6
2019-03-16T15:00:04.895Z,54.2
2019-03-16T15:15:04.178Z,53.6
2019-03-16T15:30:04.247Z,53.6
2019-03-16T15:45:04.503Z,53.3
2019-03-16T16:15:04.405Z,52.7
2019-03-16T16:30:05.032Z,52.5
2019-03-16T16:45:04.162Z,52.5
2019-03-16T17:00:04.546Z,52.3
2019-03-16T17:15:04.921Z,52.4
2019-03-16T17:30:04.929Z,52.7
2019-03-16T17:45:04.943Z,52.4
2019-03-16T18:00:04.571Z,52.6
2019-03-16T18:15:11.675Z,52.7
2019-03-16T18:30:04.120Z,52.7
2019-03-16T18:45:04.943Z,52.5
2019-03-16T19:00:04.249Z,52.8
2019-03-16T19:15:04.570Z,52.5
2019-03-16T19:30:04.560Z,52.7
2019-03-16T19:45:04.817Z,52.9
2019-03-16T20:00:04.692Z,52.9
2019-03-16T20:15:04.739Z,53.3
2019-03-16T20:30:04.264Z,53.4
2019-03-16T20:45:05.058Z,53.8
2019-03-16T21:00:04.924Z,53.7
2019-03-16T21:15:04.249Z,53.9
2019-03-16T21:30:04.670Z,53.9
2019-03-16T21:45:04.971Z,53.7
2019-03-16T22:00:04.215Z,53.8
2019-03-16T22:15:04.467Z,53.9
2019-03-16T22:30:04.409Z,54
2019-03-16T22:45:04.488Z,54
2019-03-16T23:00:04.669Z,53.6
2019-03-16T23:15:04.450Z,54
2019-03-16T23:30:04.961Z,54.3
2019-03-16T23:45:04.520Z,54.1
